• Join FlightAware (Why Join?)
  • Login
  • US Flag 
03:13PM EDT


 

Airport Tracker/Info


-or-


 

Live Flight TrackerFlight Track Log ✈ N10EH ✈ 31-Oct-2013 ✈ KRWL - KSLC

Flight Track Log - Related Links

Times and Time Zones

All times are in EDT time to prevent confusion due to time zone crossing. See the N10EH flight status page for this flight to view local times or setup timezone preferences in your user account.

Time Position Orientation Groundspeed Altitude Reporting Facility
EDT Latitude Longitude Course Direction KTS MPH feet Rate Location/Type
05:08PM 41.7836 -107.3628 276° West 244 281 11,700  Level Denver Center
05:09PM 41.7708 -107.4600 260° West 264 304 14,100 2,400 Climbing Denver Center
05:10PM 41.7531 -107.5981 260° West 318 366 16,700 2,520 Climbing Denver Center
05:11PM 41.7386 -107.7297 262° West 363 418 19,400 2,700 Climbing Denver Center
05:12PM 41.7222 -107.8903 262° West 386 444 22,400 2,520 Climbing Denver Center
05:13PM 41.7128 -108.0325 265° West 399 459 24,700 2,400 Climbing Denver Center
05:14PM 41.5512 -108.5021 276° West  Level Estimated
05:15PM 41.7186 -108.2033 273° West 408 470 27,500  Level Salt Lake Center
05:16PM 41.7244 -108.3492 273° West 412 474 29,200 1,740 Climbing Salt Lake Center
05:17PM 41.7308 -108.5194 273° West 412 474 31,100 1,320 Climbing Salt Lake Center
05:18PM 41.7356 -108.6683 272° West 418 481 32,000 420 Climbing Salt Lake Center
05:19PM 41.7411 -108.8442 272° West 426 490 32,000  Level Salt Lake Center
05:20PM 41.7456 -109.0008 272° West 440 506 32,000  Level Salt Lake Center
05:21PM 41.7508 -109.1889 272° West 456 525 32,000  Level Salt Lake Center
05:22PM 41.7553 -109.3500 272° West 457 526 32,000  Level Salt Lake Center
05:23PM 41.7594 -109.5372 272° West 455 524 32,000  Level Salt Lake Center
05:24PM 41.7631 -109.6978 272° West 453 521 32,000  Level Salt Lake Center
05:25PM 41.7769 -109.8783 276° West 441 507 32,000 -300 Level Salt Lake Center
05:26PM 41.8378 -109.9986 304° West 410 472 31,500 -900 Descending Salt Lake Center
05:27PM 41.9014 -110.1197 305° West 412 474 30,200 -780 Descending Salt Lake Center
05:28PM 41.9783 -110.2603 306° West 417 480 30,000 -120 Descending Salt Lake Center
05:29PM 42.0100 -110.4086 286° West 442 509 30,000  Level Salt Lake Center
05:30PM 41.9861 -110.5997 261° West 465 535 30,000 -360 Level Salt Lake Center
05:31PM 41.9628 -110.7692 260° West 477 549 29,300 -840 Descending Salt Lake Center
05:32PM 41.9372 -110.9594 260° West 475 547 28,300 -660 Descending Salt Lake Center
05:33PM 41.9139 -111.1308 260° West 471 542 28,000 -180 Descending Salt Lake Center
05:34PM 41.8911 -111.2986 260° West 462 532 28,000  Level Salt Lake Center
05:35PM 41.8681 -111.4658 260° West 460 529 28,000  Level Salt Lake Center
05:36PM 41.8442 -111.6303 259° West 454 522 28,000 -720 Level Salt Lake Center
05:37PM 41.8156 -111.8269 259° West 452 520 26,600 -2,400 Descending Salt Lake Center
05:38PM 41.7647 -111.9769 246° West 474 545 23,100 -3,540 Descending Salt Lake Center
05:39PM 41.6833 -112.0158 200° South 495 570 20,800 -2,940 Descending Salt Lake Center
05:39PM 41.6358 -112.0328 195° South 491 565 20,100 -2,100 Descending Salt Lake Center
05:40PM 41.5839 -112.0358 183° South 475 547 19,100 -1,140 Descending Salt Lake Center
05:40PM 41.5136 -112.0522 190° South 446 513 19,000 -780 Descending Salt Lake Center
05:41PM 41.4567 -112.0564 183° South 389 448 18,300 -1,260 Descending Salt Lake Center
05:41PM 41.4128 -112.0728 196° South 373 429 17,700 -1,620 Descending Salt Lake Center
05:42PM 41.3561 -112.0822 187° South 362 417 16,700 -1,680 Descending Salt Lake Center
05:42PM 41.3167 -112.0950 194° South 355 409 16,000 -900 Descending Salt Lake Center
05:43PM 41.2658 -112.1044 188° South 337 388 15,800 -1,020 Descending Salt Lake Center
05:43PM 41.2131 -112.1172 190° South 312 359 15,000 -1,320 Descending Salt Lake Center
05:44PM 41.1869 -112.1200 185° South 310 357 14,600 -1,260 Descending Salt Lake Center
05:44PM 41.1311 -112.1344 191° South 301 346 13,700 -1,380 Descending Salt Lake Center
05:45PM 41.1067 -112.1386 187° South 300 345 13,200 -1,380 Descending Salt Lake Center
05:45PM 41.0525 -112.1447 185° South 288 331 12,300 -1,080 Descending Salt Lake Center
05:46PM 41.0153 -112.1328 166° South 285 328 12,000 -720 Descending Salt Lake Center
05:46PM 40.9783 -112.1244 170° South 269 310 11,600 -840 Descending Salt Lake Center
05:47PM 40.9453 -112.1167 170° South 253 291 11,200 -600 Descending Salt Lake Center
05:47PM 40.9125 -112.1114 173° South 240 276 11,000 -180 Descending Salt Lake Center
05:48PM 40.8744 -112.1067 175° South 233 268 11,000  Level Salt Lake Center
05:48PM 40.8500 -112.1031 174° South 228 262 11,000  Level Salt Lake Center
05:49PM 40.8114 -112.1025 179° South 218 251 11,000 -120 Level Salt Lake Center
05:50PM 40.7794 -112.0958 171° South 211 243 10,900 -480 Descending Salt Lake Center
05:50PM 40.7561 -112.0956 179° South 214 246 10,600 -840 Descending Salt Lake Center
05:51PM 40.7214 -112.0881 171° South 208 239 10,100 -840 Descending Salt Lake Center
05:51PM 40.6989 -112.0894 183° South 206 237 9,800 -780 Descending Salt Lake Center
05:52PM 40.6483 -112.0839 175° South 197 227 9,100 -480 Descending Salt Lake Center
05:53PM 40.6144 -112.0764 170° South 185 213 9,000 -120 Descending Salt Lake Center
05:53PM 40.5958 -112.0792 186° South 187 215 9,000  Level Salt Lake Center
05:54PM 40.5819 -112.0372 114° Southeast 193 222 9,000 -120 Level Salt Lake Center
05:54PM 40.5850 -112.0233 74° East 178 205 8,900 -1,080 Descending Salt Lake Center
05:55PM 40.6169 -111.9981 31° Northeast 180 207 7,900 -1,380 Descending Salt Lake Center
05:55PM 40.6308 -111.9939 13° North 183 211 7,500 -900 Descending Salt Lake Center
05:56PM 40.6572 -111.9678 37° Northeast 170 196 7,000 -540 Descending Salt Lake Center
05:56PM 40.6694 -111.9608 23° Northeast 163 188 7,000 -1,020 Level Salt Lake Center
05:57PM 40.7108 -111.9564 North 172 198 6,000 -1,320 Descending Salt Lake Center
05:57PM 40.7144 -111.9597 325° Northwest 170 196 5,800 -1,320 Descending Salt Lake Center
05:58PM 40.7553 -111.9603 359° North 163 188 4,700 -1,200 Descending Salt Lake Center
05:58PM 40.7558 -111.9625 288° West 156 180 4,600 -540 Descending Salt Lake Center
05:59PM 40.7903 -111.9614 North 134 154 4,200 -480 Descending Salt Lake Center